sensor_id;sensor_type;location;lat;lon;timestamp;temperature;humidity
12481;DHT22;6305;48.398;11.762;2023-05-20T00:00:12;10.90;99.90
12481;DHT22;6305;48.398;11.762;2023-05-20T00:02:39;10.90;99.90
12481;DHT22;6305;48.398;11.762;2023-05-20T00:05:07;10.90;99.90
12481;DHT22;6305;48.398;11.762;2023-05-20T00:07:34;10.80;99.90
12481;DHT22;6305;48.398;11.762;2023-05-20T00:10:01;10.80;99.90
12481;DHT22;6305;48.398;11.762;2023-05-20T00:12:29;10.70;99.90
12481;DHT22;6305;48.398;11.762;2023-05-20T00:14:56;10.70;99.90
12481;DHT22;6305;48.398;11.762;2023-05-20T00:17:23;10.60;99.90
12481;DHT22;6305;48.398;11.762;2023-05-20T00:19:52;10.50;99.90
12481;DHT22;6305;48.398;11.762;2023-05-20T00:22:21;10.50;99.90
12481;DHT22;6305;48.398;11.762;2023-05-20T00:24:48;10.40;99.90
12481;DHT22;6305;48.398;11.762;2023-05-20T00:27:15;10.40;99.90
12481;DHT22;6305;48.398;11.762;2023-05-20T00:29:43;10.40;99.90
12481;DHT22;6305;48.398;11.762;2023-05-20T00:32:11;10.30;99.90
12481;DHT22;6305;48.398;11.762;2023-05-20T00:34:38;10.30;99.90
12481;DHT22;6305;48.398;11.762;2023-05-20T00:37:05;10.40;99.90
12481;DHT22;6305;48.398;11.762;2023-05-20T00:39:32;10.40;99.90
12481;DHT22;6305;48.398;11.762;2023-05-20T00:41:59;10.40;99.90
12481;DHT22;6305;48.398;11.762;2023-05-20T00:44:28;10.40;99.90
12481;DHT22;6305;48.398;11.762;2023-05-20T00:46:56;10.40;99.90
12481;DHT22;6305;48.398;11.762;2023-05-20T00:49:24;10.50;99.90
12481;DHT22;6305;48.398;11.762;2023-05-20T00:51:51;10.50;99.90
12481;DHT22;6305;48.398;11.762;2023-05-20T00:54:18;10.50;99.90
12481;DHT22;6305;48.398;11.762;2023-05-20T00:56:45;10.50;99.90
12481;DHT22;6305;48.398;11.762;2023-05-20T00:59:13;10.50;99.90
12481;DHT22;6305;48.398;11.762;2023-05-20T01:01:40;10.50;99.90
12481;DHT22;6305;48.398;11.762;2023-05-20T01:04:09;10.50;99.90
12481;DHT22;6305;48.398;11.762;2023-05-20T01:06:36;10.40;99.90
12481;DHT22;6305;48.398;11.762;2023-05-20T01:09:04;10.40;99.90
12481;DHT22;6305;48.398;11.762;2023-05-20T01:11:34;10.50;99.90
12481;DHT22;6305;48.398;11.762;2023-05-20T01:14:06;10.40;99.90
12481;DHT22;6305;48.398;11.762;2023-05-20T01:16:34;10.40;99.90
12481;DHT22;6305;48.398;11.762;2023-05-20T01:19:05;10.40;99.90
12481;DHT22;6305;48.398;11.762;2023-05-20T01:21:37;10.40;99.90
12481;DHT22;6305;48.398;11.762;2023-05-20T01:24:06;10.40;99.90
12481;DHT22;6305;48.398;11.762;2023-05-20T01:26:34;10.30;99.90
12481;DHT22;6305;48.398;11.762;2023-05-20T01:29:04;10.30;99.90
12481;DHT22;6305;48.398;11.762;2023-05-20T01:31:32;10.20;99.90
12481;DHT22;6305;48.398;11.762;2023-05-20T01:34:03;10.20;99.90
12481;DHT22;6305;48.398;11.762;2023-05-20T01:36:31;10.10;99.90
12481;DHT22;6305;48.398;11.762;2023-05-20T01:39:00;10.10;99.90
12481;DHT22;6305;48.398;11.762;2023-05-20T01:41:29;10.00;99.90
12481;DHT22;6305;48.398;11.762;2023-05-20T01:43:59;10.00;99.90
12481;DHT22;6305;48.398;11.762;2023-05-20T01:46:26;10.00;99.90
12481;DHT22;6305;48.398;11.762;2023-05-20T01:48:53;9.90;99.90
12481;DHT22;6305;48.398;11.762;2023-05-20T01:51:20;9.90;99.90
12481;DHT22;6305;48.398;11.762;2023-05-20T01:53:47;9.90;99.90
12481;DHT22;6305;48.398;11.762;2023-05-20T01:56:15;9.80;99.90
12481;DHT22;6305;48.398;11.762;2023-05-20T01:58:43;9.80;99.90
12481;DHT22;6305;48.398;11.762;2023-05-20T02:01:10;9.80;99.90
12481;DHT22;6305;48.398;11.762;2023-05-20T02:03:37;9.80;99.90
12481;DHT22;6305;48.398;11.762;2023-05-20T02:06:04;9.80;99.90
12481;DHT22;6305;48.398;11.762;2023-05-20T02:08:31;9.80;99.90
12481;DHT22;6305;48.398;11.762;2023-05-20T02:10:58;9.80;99.90
12481;DHT22;6305;48.398;11.762;2023-05-20T02:13:26;9.80;99.90
12481;DHT22;6305;48.398;11.762;2023-05-20T02:15:55;9.80;99.90
12481;DHT22;6305;48.398;11.762;2023-05-20T02:18:23;9.80;99.90
12481;DHT22;6305;48.398;11.762;2023-05-20T02:20:51;9.80;99.90
12481;DHT22;6305;48.398;11.762;2023-05-20T02:23:19;9.80;99.90
12481;DHT22;6305;48.398;11.762;2023-05-20T02:25:46;9.80;99.90
12481;DHT22;6305;48.398;11.762;2023-05-20T02:28:13;9.80;99.90
12481;DHT22;6305;48.398;11.762;2023-05-20T02:30:40;9.90;99.90
12481;DHT22;6305;48.398;11.762;2023-05-20T02:33:08;9.90;99.90
12481;DHT22;6305;48.398;11.762;2023-05-20T02:35:36;9.90;99.90
12481;DHT22;6305;48.398;11.762;2023-05-20T02:38:03;9.90;99.90
12481;DHT22;6305;48.398;11.762;2023-05-20T02:40:31;9.90;99.90
12481;DHT22;6305;48.398;11.762;2023-05-20T02:42:59;9.90;99.90
12481;DHT22;6305;48.398;11.762;2023-05-20T02:45:26;9.90;99.90
12481;DHT22;6305;48.398;11.762;2023-05-20T02:47:53;9.90;99.90
12481;DHT22;6305;48.398;11.762;2023-05-20T02:50:22;9.90;99.90
12481;DHT22;6305;48.398;11.762;2023-05-20T02:52:49;10.00;99.90
12481;DHT22;6305;48.398;11.762;2023-05-20T02:55:16;10.00;99.90
12481;DHT22;6305;48.398;11.762;2023-05-20T02:57:43;10.00;99.90
12481;DHT22;6305;48.398;11.762;2023-05-20T03:00:11;10.00;99.90
12481;DHT22;6305;48.398;11.762;2023-05-20T03:02:39;10.00;99.90
12481;DHT22;6305;48.398;11.762;2023-05-20T03:05:06;10.00;99.90
12481;DHT22;6305;48.398;11.762;2023-05-20T03:07:36;10.00;99.90
12481;DHT22;6305;48.398;11.762;2023-05-20T03:10:06;10.00;99.90
12481;DHT22;6305;48.398;11.762;2023-05-20T03:12:33;10.10;99.90
12481;DHT22;6305;48.398;11.762;2023-05-20T03:15:00;10.10;99.90
12481;DHT22;6305;48.398;11.762;2023-05-20T03:17:28;10.10;99.90
12481;DHT22;6305;48.398;11.762;2023-05-20T03:19:56;10.20;99.90
12481;DHT22;6305;48.398;11.762;2023-05-20T03:22:23;10.20;99.90
12481;DHT22;6305;48.398;11.762;2023-05-20T03:24:52;10.20;99.90
12481;DHT22;6305;48.398;11.762;2023-05-20T03:27:19;10.20;99.90
12481;DHT22;6305;48.398;11.762;2023-05-20T03:29:47;10.20;99.90
12481;DHT22;6305;48.398;11.762;2023-05-20T03:32:14;10.20;99.90
12481;DHT22;6305;48.398;11.762;2023-05-20T03:34:41;10.30;99.90
12481;DHT22;6305;48.398;11.762;2023-05-20T03:37:08;10.30;99.90
12481;DHT22;6305;48.398;11.762;2023-05-20T03:39:35;10.30;99.90
12481;DHT22;6305;48.398;11.762;2023-05-20T03:42:04;10.40;99.90
12481;DHT22;6305;48.398;11.762;2023-05-20T03:44:31;10.40;99.90
12481;DHT22;6305;48.398;11.762;2023-05-20T03:46:58;10.40;99.90
12481;DHT22;6305;48.398;11.762;2023-05-20T03:49:25;10.50;99.90
12481;DHT22;6305;48.398;11.762;2023-05-20T03:51:52;10.50;99.90
12481;DHT22;6305;48.398;11.762;2023-05-20T03:54:19;10.60;99.90
12481;DHT22;6305;48.398;11.762;2023-05-20T03:56:49;10.70;99.90
12481;DHT22;6305;48.398;11.762;2023-05-20T03:59:17;10.80;99.90
12481;DHT22;6305;48.398;11.762;2023-05-20T04:01:46;10.90;99.90
12481;DHT22;6305;48.398;11.762;2023-05-20T04:04:13;11.00;99.90
12481;DHT22;6305;48.398;11.762;2023-05-20T04:06:40;11.10;99.90
12481;DHT22;6305;48.398;11.762;2023-05-20T04:09:07;11.10;99.90
12481;DHT22;6305;48.398;11.762;2023-05-20T04:11:34;11.20;99.90
12481;DHT22;6305;48.398;11.762;2023-05-20T04:14:01;11.20;99.90
12481;DHT22;6305;48.398;11.762;2023-05-20T04:16:30;11.20;99.90
12481;DHT22;6305;48.398;11.762;2023-05-20T04:18:58;11.30;99.90
12481;DHT22;6305;48.398;11.762;2023-05-20T04:21:25;11.40;99.90
12481;DHT22;6305;48.398;11.762;2023-05-20T04:23:52;11.50;99.90
12481;DHT22;6305;48.398;11.762;2023-05-20T04:26:19;11.70;99.90
12481;DHT22;6305;48.398;11.762;2023-05-20T04:28:47;12.00;99.90
12481;DHT22;6305;48.398;11.762;2023-05-20T04:31:14;12.30;99.90
12481;DHT22;6305;48.398;11.762;2023-05-20T04:33:43;12.60;99.90
12481;DHT22;6305;48.398;11.762;2023-05-20T04:36:11;13.00;99.90
12481;DHT22;6305;48.398;11.762;2023-05-20T04:38:40;13.20;99.90
12481;DHT22;6305;48.398;11.762;2023-05-20T04:41:09;13.40;99.90
12481;DHT22;6305;48.398;11.762;2023-05-20T04:43:37;13.70;99.90
12481;DHT22;6305;48.398;11.762;2023-05-20T04:46:05;13.80;99.90
12481;DHT22;6305;48.398;11.762;2023-05-20T04:48:32;14.00;99.90
12481;DHT22;6305;48.398;11.762;2023-05-20T04:51:01;14.10;99.90
12481;DHT22;6305;48.398;11.762;2023-05-20T04:53:30;14.20;99.90
12481;DHT22;6305;48.398;11.762;2023-05-20T04:56:00;14.40;99.90
12481;DHT22;6305;48.398;11.762;2023-05-20T04:58:29;14.50;99.90
12481;DHT22;6305;48.398;11.762;2023-05-20T05:00:56;14.70;99.90
12481;DHT22;6305;48.398;11.762;2023-05-20T05:03:23;14.90;99.90
12481;DHT22;6305;48.398;11.762;2023-05-20T05:05:50;15.10;99.90
12481;DHT22;6305;48.398;11.762;2023-05-20T05:08:18;15.40;99.90
12481;DHT22;6305;48.398;11.762;2023-05-20T05:10:49;15.60;99.90
12481;DHT22;6305;48.398;11.762;2023-05-20T05:13:16;15.90;99.90
12481;DHT22;6305;48.398;11.762;2023-05-20T05:15:44;16.10;99.90
12481;DHT22;6305;48.398;11.762;2023-05-20T05:18:11;16.40;99.90
12481;DHT22;6305;48.398;11.762;2023-05-20T05:20:38;16.70;99.90
12481;DHT22;6305;48.398;11.762;2023-05-20T05:23:05;16.80;99.90
12481;DHT22;6305;48.398;11.762;2023-05-20T05:25:33;16.90;99.90
12481;DHT22;6305;48.398;11.762;2023-05-20T05:28:00;17.00;99.90
12481;DHT22;6305;48.398;11.762;2023-05-20T05:30:27;17.30;99.90
12481;DHT22;6305;48.398;11.762;2023-05-20T05:32:54;17.50;99.90
12481;DHT22;6305;48.398;11.762;2023-05-20T05:35:21;17.60;99.90
12481;DHT22;6305;48.398;11.762;2023-05-20T05:37:48;17.70;99.90
12481;DHT22;6305;48.398;11.762;2023-05-20T05:40:15;17.80;99.90
12481;DHT22;6305;48.398;11.762;2023-05-20T05:42:44;17.90;99.90
12481;DHT22;6305;48.398;11.762;2023-05-20T05:45:11;18.00;99.90
12481;DHT22;6305;48.398;11.762;2023-05-20T05:47:38;18.20;99.90
12481;DHT22;6305;48.398;11.762;2023-05-20T05:50:05;18.20;99.90
12481;DHT22;6305;48.398;11.762;2023-05-20T05:52:33;18.30;99.90
12481;DHT22;6305;48.398;11.762;2023-05-20T05:55:02;18.40;99.90
12481;DHT22;6305;48.398;11.762;2023-05-20T05:57:30;18.60;99.90
12481;DHT22;6305;48.398;11.762;2023-05-20T05:59:59;18.90;99.90
12481;DHT22;6305;48.398;11.762;2023-05-20T06:02:30;19.10;99.90
12481;DHT22;6305;48.398;11.762;2023-05-20T06:05:01;19.40;99.90
12481;DHT22;6305;48.398;11.762;2023-05-20T06:07:28;19.70;99.90
12481;DHT22;6305;48.398;11.762;2023-05-20T06:09:56;20.10;98.40
12481;DHT22;6305;48.398;11.762;2023-05-20T06:12:23;20.50;95.90
12481;DHT22;6305;48.398;11.762;2023-05-20T06:14:50;20.80;93.40
12481;DHT22;6305;48.398;11.762;2023-05-20T06:17:18;21.10;89.40
12481;DHT22;6305;48.398;11.762;2023-05-20T06:19:46;21.70;84.70
12481;DHT22;6305;48.398;11.762;2023-05-20T06:22:13;22.20;80.40
12481;DHT22;6305;48.398;11.762;2023-05-20T06:24:40;22.70;75.30
12481;DHT22;6305;48.398;11.762;2023-05-20T06:27:07;23.00;70.80
12481;DHT22;6305;48.398;11.762;2023-05-20T06:29:34;23.40;68.60
12481;DHT22;6305;48.398;11.762;2023-05-20T06:32:01;24.00;66.90
12481;DHT22;6305;48.398;11.762;2023-05-20T06:34:29;25.00;64.30
12481;DHT22;6305;48.398;11.762;2023-05-20T06:36:57;26.20;59.70
12481;DHT22;6305;48.398;11.762;2023-05-20T06:39:24;27.10;55.10
12481;DHT22;6305;48.398;11.762;2023-05-20T06:41:51;27.40;53.60
12481;DHT22;6305;48.398;11.762;2023-05-20T06:44:26;27.50;52.50
12481;DHT22;6305;48.398;11.762;2023-05-20T06:46:59;28.70;51.70
12481;DHT22;6305;48.398;11.762;2023-05-20T06:49:27;29.50;49.10
12481;DHT22;6305;48.398;11.762;2023-05-20T06:51:55;30.40;47.90
12481;DHT22;6305;48.398;11.762;2023-05-20T06:54:23;31.40;45.70
12481;DHT22;6305;48.398;11.762;2023-05-20T06:56:50;32.60;43.80
12481;DHT22;6305;48.398;11.762;2023-05-20T06:59:20;33.30;42.10
12481;DHT22;6305;48.398;11.762;2023-05-20T07:01:47;33.20;40.70
12481;DHT22;6305;48.398;11.762;2023-05-20T07:04:14;32.90;40.60
12481;DHT22;6305;48.398;11.762;2023-05-20T07:06:42;32.90;40.70
12481;DHT22;6305;48.398;11.762;2023-05-20T07:09:10;33.40;40.10
12481;DHT22;6305;48.398;11.762;2023-05-20T07:11:37;33.20;39.70
12481;DHT22;6305;48.398;11.762;2023-05-20T07:14:04;33.00;40.50
12481;DHT22;6305;48.398;11.762;2023-05-20T07:16:32;32.90;40.10
12481;DHT22;6305;48.398;11.762;2023-05-20T07:19:01;33.40;40.30
12481;DHT22;6305;48.398;11.762;2023-05-20T07:21:29;33.90;39.80
12481;DHT22;6305;48.398;11.762;2023-05-20T07:24:18;33.80;38.80
12481;DHT22;6305;48.398;11.762;2023-05-20T07:26:45;33.60;39.30
12481;DHT22;6305;48.398;11.762;2023-05-20T07:29:12;33.30;38.20
12481;DHT22;6305;48.398;11.762;2023-05-20T07:31:40;32.00;38.90
12481;DHT22;6305;48.398;11.762;2023-05-20T07:34:07;30.80;41.10
12481;DHT22;6305;48.398;11.762;2023-05-20T07:36:34;30.00;42.40
12481;DHT22;6305;48.398;11.762;2023-05-20T07:39:04;30.30;43.40
12481;DHT22;6305;48.398;11.762;2023-05-20T07:41:36;30.70;42.90
12481;DHT22;6305;48.398;11.762;2023-05-20T07:44:04;29.20;42.80
12481;DHT22;6305;48.398;11.762;2023-05-20T07:46:33;29.90;44.90
12481;DHT22;6305;48.398;11.762;2023-05-20T07:49:00;32.00;42.70
12481;DHT22;6305;48.398;11.762;2023-05-20T07:51:27;33.40;40.20
12481;DHT22;6305;48.398;11.762;2023-05-20T07:53:54;34.70;38.10
12481;DHT22;6305;48.398;11.762;2023-05-20T07:56:21;35.70;36.70
12481;DHT22;6305;48.398;11.762;2023-05-20T07:58:53;36.40;35.80
12481;DHT22;6305;48.398;11.762;2023-05-20T08:01:22;36.90;34.20
12481;DHT22;6305;48.398;11.762;2023-05-20T08:03:49;37.00;33.70
12481;DHT22;6305;48.398;11.762;2023-05-20T08:06:19;36.60;34.20
12481;DHT22;6305;48.398;11.762;2023-05-20T08:08:47;36.70;33.90
12481;DHT22;6305;48.398;11.762;2023-05-20T08:11:19;37.50;33.60
12481;DHT22;6305;48.398;11.762;2023-05-20T08:13:47;37.90;32.50
12481;DHT22;6305;48.398;11.762;2023-05-20T08:16:17;38.20;32.70
12481;DHT22;6305;48.398;11.762;2023-05-20T08:18:44;37.90;31.40
12481;DHT22;6305;48.398;11.762;2023-05-20T08:21:12;37.40;32.60
12481;DHT22;6305;48.398;11.762;2023-05-20T08:23:40;37.20;32.80
12481;DHT22;6305;48.398;11.762;2023-05-20T08:26:07;37.00;33.20
12481;DHT22;6305;48.398;11.762;2023-05-20T08:28:38;37.30;33.00
12481;DHT22;6305;48.398;11.762;2023-05-20T08:31:06;37.20;32.10
12481;DHT22;6305;48.398;11.762;2023-05-20T08:33:36;36.60;31.90
12481;DHT22;6305;48.398;11.762;2023-05-20T08:36:03;35.30;33.70
12481;DHT22;6305;48.398;11.762;2023-05-20T08:38:31;34.80;34.50
12481;DHT22;6305;48.398;11.762;2023-05-20T08:40:58;34.50;34.70
12481;DHT22;6305;48.398;11.762;2023-05-20T08:43:25;34.90;35.50
12481;DHT22;6305;48.398;11.762;2023-05-20T08:45:52;36.30;34.90
12481;DHT22;6305;48.398;11.762;2023-05-20T08:48:23;37.10;33.40
12481;DHT22;6305;48.398;11.762;2023-05-20T08:50:56;37.60;32.50
12481;DHT22;6305;48.398;11.762;2023-05-20T08:53:24;37.60;32.00
12481;DHT22;6305;48.398;11.762;2023-05-20T08:55:53;36.10;31.40
12481;DHT22;6305;48.398;11.762;2023-05-20T08:58:22;34.30;34.30
12481;DHT22;6305;48.398;11.762;2023-05-20T09:00:50;34.90;35.60
12481;DHT22;6305;48.398;11.762;2023-05-20T09:03:18;35.60;35.20
12481;DHT22;6305;48.398;11.762;2023-05-20T09:05:46;35.50;33.90
12481;DHT22;6305;48.398;11.762;2023-05-20T09:08:14;35.00;34.20
12481;DHT22;6305;48.398;11.762;2023-05-20T09:10:41;34.70;34.40
12481;DHT22;6305;48.398;11.762;2023-05-20T09:13:09;34.90;35.00
12481;DHT22;6305;48.398;11.762;2023-05-20T09:15:36;35.10;34.70
12481;DHT22;6305;48.398;11.762;2023-05-20T09:18:06;34.90;34.70
12481;DHT22;6305;48.398;11.762;2023-05-20T09:20:34;34.50;35.10
12481;DHT22;6305;48.398;11.762;2023-05-20T09:23:04;33.90;36.00
12481;DHT22;6305;48.398;11.762;2023-05-20T09:25:32;33.20;36.00
12481;DHT22;6305;48.398;11.762;2023-05-20T09:28:00;32.80;37.00
12481;DHT22;6305;48.398;11.762;2023-05-20T09:30:27;33.10;36.50
12481;DHT22;6305;48.398;11.762;2023-05-20T09:32:55;33.80;36.70
12481;DHT22;6305;48.398;11.762;2023-05-20T09:35:22;34.40;36.10
12481;DHT22;6305;48.398;11.762;2023-05-20T09:37:52;34.40;35.20
12481;DHT22;6305;48.398;11.762;2023-05-20T09:40:23;33.80;35.30
12481;DHT22;6305;48.398;11.762;2023-05-20T09:42:56;34.00;36.70
12481;DHT22;6305;48.398;11.762;2023-05-20T09:45:23;35.00;36.90
12481;DHT22;6305;48.398;11.762;2023-05-20T09:47:50;35.70;35.00
12481;DHT22;6305;48.398;11.762;2023-05-20T09:50:19;35.50;33.50
12481;DHT22;6305;48.398;11.762;2023-05-20T09:52:47;35.00;34.10
12481;DHT22;6305;48.398;11.762;2023-05-20T09:55:16;35.20;33.80
12481;DHT22;6305;48.398;11.762;2023-05-20T09:57:44;35.30;33.30
12481;DHT22;6305;48.398;11.762;2023-05-20T10:00:14;35.00;33.40
12481;DHT22;6305;48.398;11.762;2023-05-20T10:02:43;34.30;33.20
12481;DHT22;6305;48.398;11.762;2023-05-20T10:05:15;34.30;34.90
12481;DHT22;6305;48.398;11.762;2023-05-20T10:11:05;33.40;35.10
12481;DHT22;6305;48.398;11.762;2023-05-20T10:13:49;32.50;36.80
12481;DHT22;6305;48.398;11.762;2023-05-20T10:16:28;32.30;37.30
12481;DHT22;6305;48.398;11.762;2023-05-20T10:19:05;32.20;36.30
12481;DHT22;6305;48.398;11.762;2023-05-20T10:21:34;31.70;36.80
12481;DHT22;6305;48.398;11.762;2023-05-20T10:24:05;31.80;37.60
12481;DHT22;6305;48.398;11.762;2023-05-20T10:26:35;32.10;37.90
12481;DHT22;6305;48.398;11.762;2023-05-20T10:29:14;32.20;37.40
12481;DHT22;6305;48.398;11.762;2023-05-20T10:31:48;32.10;37.60
12481;DHT22;6305;48.398;11.762;2023-05-20T10:34:17;31.90;36.90
12481;DHT22;6305;48.398;11.762;2023-05-20T10:36:56;31.70;38.80
12481;DHT22;6305;48.398;11.762;2023-05-20T10:39:25;31.90;38.40
12481;DHT22;6305;48.398;11.762;2023-05-20T10:41:53;31.70;38.40
12481;DHT22;6305;48.398;11.762;2023-05-20T10:44:40;31.30;38.70
12481;DHT22;6305;48.398;11.762;2023-05-20T10:47:08;31.30;39.20
12481;DHT22;6305;48.398;11.762;2023-05-20T10:49:39;31.50;39.20
12481;DHT22;6305;48.398;11.762;2023-05-20T10:52:07;31.40;39.40
12481;DHT22;6305;48.398;11.762;2023-05-20T10:54:41;31.20;38.70
12481;DHT22;6305;48.398;11.762;2023-05-20T10:57:10;30.80;38.80
12481;DHT22;6305;48.398;11.762;2023-05-20T10:59:37;30.60;39.70
12481;DHT22;6305;48.398;11.762;2023-05-20T11:02:04;30.60;40.10
12481;DHT22;6305;48.398;11.762;2023-05-20T11:04:32;30.50;39.80
12481;DHT22;6305;48.398;11.762;2023-05-20T11:07:00;30.00;40.00
12481;DHT22;6305;48.398;11.762;2023-05-20T11:09:27;30.50;40.00
12481;DHT22;6305;48.398;11.762;2023-05-20T11:11:55;31.40;39.40
12481;DHT22;6305;48.398;11.762;2023-05-20T11:14:22;32.60;38.90
12481;DHT22;6305;48.398;11.762;2023-05-20T11:16:55;34.10;36.10
12481;DHT22;6305;48.398;11.762;2023-05-20T11:19:22;35.00;35.00
12481;DHT22;6305;48.398;11.762;2023-05-20T11:21:51;35.90;33.90
12481;DHT22;6305;48.398;11.762;2023-05-20T11:24:23;36.20;32.40
12481;DHT22;6305;48.398;11.762;2023-05-20T11:26:51;36.40;32.20
12481;DHT22;6305;48.398;11.762;2023-05-20T11:29:18;36.00;32.00
12481;DHT22;6305;48.398;11.762;2023-05-20T11:31:47;35.90;31.80
12481;DHT22;6305;48.398;11.762;2023-05-20T11:34:15;36.10;32.40
12481;DHT22;6305;48.398;11.762;2023-05-20T11:36:43;36.50;32.30
12481;DHT22;6305;48.398;11.762;2023-05-20T11:39:12;36.70;31.60
12481;DHT22;6305;48.398;11.762;2023-05-20T11:41:41;36.60;32.10
12481;DHT22;6305;48.398;11.762;2023-05-20T11:44:09;36.70;31.70
12481;DHT22;6305;48.398;11.762;2023-05-20T11:46:40;36.70;31.00
12481;DHT22;6305;48.398;11.762;2023-05-20T11:49:08;36.90;31.20
12481;DHT22;6305;48.398;11.762;2023-05-20T11:51:36;37.30;31.20
12481;DHT22;6305;48.398;11.762;2023-05-20T11:54:04;37.40;30.90
12481;DHT22;6305;48.398;11.762;2023-05-20T11:56:34;36.20;31.50
12481;DHT22;6305;48.398;11.762;2023-05-20T11:59:02;35.30;32.40
12481;DHT22;6305;48.398;11.762;2023-05-20T12:01:31;34.20;33.60
12481;DHT22;6305;48.398;11.762;2023-05-20T12:04:03;33.80;33.90
12481;DHT22;6305;48.398;11.762;2023-05-20T12:06:31;33.70;34.20
12481;DHT22;6305;48.398;11.762;2023-05-20T12:08:59;33.80;34.40
12481;DHT22;6305;48.398;11.762;2023-05-20T12:11:33;34.10;34.40
12481;DHT22;6305;48.398;11.762;2023-05-20T12:14:01;34.90;33.60
12481;DHT22;6305;48.398;11.762;2023-05-20T12:16:29;36.20;33.50
12481;DHT22;6305;48.398;11.762;2023-05-20T12:18:56;36.80;30.80
12481;DHT22;6305;48.398;11.762;2023-05-20T12:21:23;36.80;30.80
12481;DHT22;6305;48.398;11.762;2023-05-20T12:23:50;37.20;30.60
12481;DHT22;6305;48.398;11.762;2023-05-20T12:26:22;38.10;31.00
12481;DHT22;6305;48.398;11.762;2023-05-20T12:28:50;38.90;29.40
12481;DHT22;6305;48.398;11.762;2023-05-20T12:31:17;39.20;28.80
12481;DHT22;6305;48.398;11.762;2023-05-20T12:33:44;38.70;28.70
12481;DHT22;6305;48.398;11.762;2023-05-20T12:36:11;37.70;28.70
12481;DHT22;6305;48.398;11.762;2023-05-20T12:38:38;37.50;29.50
12481;DHT22;6305;48.398;11.762;2023-05-20T12:41:05;37.80;29.40
12481;DHT22;6305;48.398;11.762;2023-05-20T12:43:34;38.20;28.50
12481;DHT22;6305;48.398;11.762;2023-05-20T12:46:02;37.70;28.90
12481;DHT22;6305;48.398;11.762;2023-05-20T12:48:29;36.00;29.60
12481;DHT22;6305;48.398;11.762;2023-05-20T12:50:57;34.60;31.40
12481;DHT22;6305;48.398;11.762;2023-05-20T12:53:24;34.10;32.80
12481;DHT22;6305;48.398;11.762;2023-05-20T12:55:51;34.10;33.00
12481;DHT22;6305;48.398;11.762;2023-05-20T12:58:18;34.50;33.10
12481;DHT22;6305;48.398;11.762;2023-05-20T13:00:45;34.60;33.10
12481;DHT22;6305;48.398;11.762;2023-05-20T13:03:13;34.30;33.60
12481;DHT22;6305;48.398;11.762;2023-05-20T13:05:40;34.60;34.00
12481;DHT22;6305;48.398;11.762;2023-05-20T13:08:07;34.70;33.30
12481;DHT22;6305;48.398;11.762;2023-05-20T13:10:35;34.90;33.00
12481;DHT22;6305;48.398;11.762;2023-05-20T13:13:02;35.10;32.80
12481;DHT22;6305;48.398;11.762;2023-05-20T13:15:29;35.20;31.80
12481;DHT22;6305;48.398;11.762;2023-05-20T13:17:57;35.30;31.70
12481;DHT22;6305;48.398;11.762;2023-05-20T13:20:27;35.40;31.40
12481;DHT22;6305;48.398;11.762;2023-05-20T13:22:54;35.30;31.20
12481;DHT22;6305;48.398;11.762;2023-05-20T13:25:21;35.10;31.30
12481;DHT22;6305;48.398;11.762;2023-05-20T13:27:49;34.90;32.80
12481;DHT22;6305;48.398;11.762;2023-05-20T13:30:16;35.00;32.50
12481;DHT22;6305;48.398;11.762;2023-05-20T13:32:43;34.90;32.80
12481;DHT22;6305;48.398;11.762;2023-05-20T13:35:10;35.00;32.90
12481;DHT22;6305;48.398;11.762;2023-05-20T13:37:40;35.30;32.40
12481;DHT22;6305;48.398;11.762;2023-05-20T13:40:08;35.50;32.30
12481;DHT22;6305;48.398;11.762;2023-05-20T13:42:36;35.30;33.10
12481;DHT22;6305;48.398;11.762;2023-05-20T13:45:04;35.20;32.90
12481;DHT22;6305;48.398;11.762;2023-05-20T13:47:31;35.90;32.60
12481;DHT22;6305;48.398;11.762;2023-05-20T13:49:58;36.40;32.50
12481;DHT22;6305;48.398;11.762;2023-05-20T13:52:25;36.50;30.40
12481;DHT22;6305;48.398;11.762;2023-05-20T13:54:54;36.40;30.50
12481;DHT22;6305;48.398;11.762;2023-05-20T13:57:21;36.10;31.10
12481;DHT22;6305;48.398;11.762;2023-05-20T13:59:48;36.10;31.00
12481;DHT22;6305;48.398;11.762;2023-05-20T14:02:15;35.60;31.50
12481;DHT22;6305;48.398;11.762;2023-05-20T14:04:42;35.90;32.00
12481;DHT22;6305;48.398;11.762;2023-05-20T14:07:11;36.00;30.50
12481;DHT22;6305;48.398;11.762;2023-05-20T14:09:38;35.60;30.00
12481;DHT22;6305;48.398;11.762;2023-05-20T14:12:07;34.70;30.30
12481;DHT22;6305;48.398;11.762;2023-05-20T14:14:34;34.10;32.20
12481;DHT22;6305;48.398;11.762;2023-05-20T14:17:01;33.60;32.40
12481;DHT22;6305;48.398;11.762;2023-05-20T14:19:28;33.00;32.70
12481;DHT22;6305;48.398;11.762;2023-05-20T14:21:55;32.30;33.10
12481;DHT22;6305;48.398;11.762;2023-05-20T14:24:23;31.60;34.60
12481;DHT22;6305;48.398;11.762;2023-05-20T14:26:50;31.20;35.70
12481;DHT22;6305;48.398;11.762;2023-05-20T14:29:19;31.10;35.90
12481;DHT22;6305;48.398;11.762;2023-05-20T14:31:46;31.10;36.20
12481;DHT22;6305;48.398;11.762;2023-05-20T14:34:13;31.20;36.60
12481;DHT22;6305;48.398;11.762;2023-05-20T14:36:41;31.10;37.50
12481;DHT22;6305;48.398;11.762;2023-05-20T14:39:08;30.90;37.60
12481;DHT22;6305;48.398;11.762;2023-05-20T14:41:36;30.60;38.30
12481;DHT22;6305;48.398;11.762;2023-05-20T14:44:04;30.80;38.90
12481;DHT22;6305;48.398;11.762;2023-05-20T14:46:32;31.00;39.00
12481;DHT22;6305;48.398;11.762;2023-05-20T14:48:59;30.80;38.90
12481;DHT22;6305;48.398;11.762;2023-05-20T14:51:26;30.70;39.50
12481;DHT22;6305;48.398;11.762;2023-05-20T14:53:53;30.30;39.60
12481;DHT22;6305;48.398;11.762;2023-05-20T14:56:21;30.00;40.10
12481;DHT22;6305;48.398;11.762;2023-05-20T14:58:48;29.60;40.80
12481;DHT22;6305;48.398;11.762;2023-05-20T15:01:15;29.30;41.60
12481;DHT22;6305;48.398;11.762;2023-05-20T15:03:43;29.00;42.10
12481;DHT22;6305;48.398;11.762;2023-05-20T15:06:10;28.80;42.30
12481;DHT22;6305;48.398;11.762;2023-05-20T15:08:37;28.60;42.40
12481;DHT22;6305;48.398;11.762;2023-05-20T15:11:04;28.20;42.50
12481;DHT22;6305;48.398;11.762;2023-05-20T15:13:31;28.00;43.60
12481;DHT22;6305;48.398;11.762;2023-05-20T15:15:59;27.80;43.20
12481;DHT22;6305;48.398;11.762;2023-05-20T15:18:26;27.40;43.00
12481;DHT22;6305;48.398;11.762;2023-05-20T15:20:54;27.20;44.00
12481;DHT22;6305;48.398;11.762;2023-05-20T15:23:21;27.10;44.60
12481;DHT22;6305;48.398;11.762;2023-05-20T15:25:48;27.00;44.50
12481;DHT22;6305;48.398;11.762;2023-05-20T15:28:15;26.80;44.60
12481;DHT22;6305;48.398;11.762;2023-05-20T15:30:44;26.60;44.80
12481;DHT22;6305;48.398;11.762;2023-05-20T15:33:11;26.50;45.20
12481;DHT22;6305;48.398;11.762;2023-05-20T15:35:38;26.50;44.90
12481;DHT22;6305;48.398;11.762;2023-05-20T15:38:06;26.30;45.50
12481;DHT22;6305;48.398;11.762;2023-05-20T15:40:33;26.30;46.10